Time;durP1;ratioP1;P1;durP2;ratioP2;P2;SDS_P1;SDS_P2;PMS_P1;PMS_P2;Temp;Humidity;BMP_temperature;BMP_pressure;BME280_temperature;BME280_humidity;BME280_pressure;Samples;Min_cycle;Max_cycle;Signal;HPM_P1;HPM_P2
2023/06/09 00:02:06;;;;;;;15.43;12.70;;;15.90;99.90;;;;;;5049875;28;20060;-84
2023/06/09 00:04:35;;;;;;;15.02;12.18;;;15.90;99.90;;;;;;5048809;28;20068;-81
2023/06/09 00:07:02;;;;;;;17.02;13.43;;;15.90;99.90;;;;;;5048552;28;20024;-84
2023/06/09 00:09:31;;;;;;;16.05;13.27;;;15.90;99.90;;;;;;5048702;28;20025;-84
2023/06/09 00:11:58;;;;;;;19.33;13.75;;;15.90;99.90;;;;;;5048550;28;20025;-84
2023/06/09 00:14:24;;;;;;;14.18;12.20;;;15.90;99.90;;;;;;5048516;28;20025;-84
2023/06/09 00:16:51;;;;;;;15.23;13.13;;;15.80;99.90;;;;;;5049750;28;20036;-81
2023/06/09 00:19:17;;;;;;;17.38;13.13;;;15.80;99.90;;;;;;5048585;28;20124;-81
2023/06/09 00:21:49;;;;;;;19.15;13.73;;;15.80;99.90;;;;;;5048637;28;20033;-83
2023/06/09 00:24:20;;;;;;;16.43;13.97;;;15.80;99.90;;;;;;5048626;28;20017;-81
2023/06/09 00:26:46;;;;;;;18.90;13.07;;;15.80;99.90;;;;;;5049796;28;20292;-82
2023/06/09 00:29:12;;;;;;;15.23;12.43;;;15.80;99.90;;;;;;5048403;28;20386;-81
2023/06/09 00:31:40;;;;;;;14.25;12.40;;;15.80;99.90;;;;;;5049746;28;20032;-81
2023/06/09 00:34:06;;;;;;;16.52;12.80;;;15.80;99.90;;;;;;5048385;28;20035;-84
2023/06/09 00:36:31;;;;;;;16.67;12.55;;;15.80;99.90;;;;;;5048340;28;20104;-81
2023/06/09 00:38:57;;;;;;;15.82;12.95;;;15.80;99.90;;;;;;5049870;28;20029;-82
2023/06/09 00:41:22;;;;;;;15.20;12.98;;;15.80;99.90;;;;;;5048198;28;20027;-81
2023/06/09 00:43:48;;;;;;;16.02;12.70;;;15.70;99.90;;;;;;5049628;28;20026;-81
2023/06/09 00:46:15;;;;;;;20.30;13.85;;;15.70;99.90;;;;;;5048277;28;20017;-81
2023/06/09 00:48:40;;;;;;;15.50;12.70;;;15.70;99.90;;;;;;5048192;28;20497;-81
2023/06/09 00:51:06;;;;;;;17.88;13.02;;;15.70;99.90;;;;;;5049421;28;20032;-81
2023/06/09 00:53:32;;;;;;;15.10;12.23;;;15.70;99.90;;;;;;5051228;28;20021;-81
2023/06/09 00:55:57;;;;;;;15.43;13.05;;;15.70;99.90;;;;;;5052796;28;20044;-84
2023/06/09 00:58:24;;;;;;;16.98;12.98;;;15.70;99.90;;;;;;5052662;28;20025;-84
2023/06/09 01:00:51;;;;;;;18.17;13.48;;;15.70;99.90;;;;;;5052820;28;20021;-81
2023/06/09 01:03:18;;;;;;;17.63;12.98;;;15.70;99.90;;;;;;5051736;28;20470;-81
2023/06/09 01:05:44;;;;;;;18.98;13.95;;;15.70;99.90;;;;;;5052688;28;20025;-85
2023/06/09 01:08:13;;;;;;;16.15;13.30;;;15.70;99.90;;;;;;5051270;28;20033;-81
2023/06/09 01:11:20;;;;;;;17.92;13.93;;;15.80;99.90;;;;;;5052607;28;20021;-81
2023/06/09 01:14:13;;;;;;;18.40;13.93;;;15.80;99.90;;;;;;5051300;28;20033;-84
2023/06/09 01:16:52;;;;;;;17.13;13.30;;;15.80;99.90;;;;;;5052561;28;20481;-82
2023/06/09 01:19:36;;;;;;;16.80;13.60;;;15.80;99.90;;;;;;5051123;28;20032;-81
2023/06/09 01:22:31;;;;;;;18.15;13.82;;;15.80;99.90;;;;;;5051166;28;20051;-82
2023/06/09 01:25:25;;;;;;;18.33;14.65;;;15.80;99.90;;;;;;5044516;28;20041;-81
2023/06/09 01:27:51;;;;;;;22.05;16.70;;;15.80;99.90;;;;;;5050931;28;20501;-84
2023/06/09 01:30:18;;;;;;;20.55;15.50;;;15.80;99.90;;;;;;5052204;28;20021;-84
2023/06/09 01:32:45;;;;;;;22.73;15.77;;;15.90;99.90;;;;;;5052489;28;20029;-81
2023/06/09 01:35:11;;;;;;;22.52;16.13;;;15.90;99.90;;;;;;5052286;28;20021;-81
2023/06/09 01:37:38;;;;;;;18.48;14.50;;;15.80;99.90;;;;;;5050989;28;20382;-83
2023/06/09 01:40:05;;;;;;;18.55;14.75;;;15.80;99.90;;;;;;5049893;27;20021;-84
2023/06/09 01:42:31;;;;;;;22.58;16.80;;;15.90;99.90;;;;;;5050622;28;20014;-84
2023/06/09 01:44:57;;;;;;;19.95;15.13;;;15.90;99.90;;;;;;5051936;28;20032;-85
2023/06/09 01:47:22;;;;;;;19.95;14.60;;;15.90;99.90;;;;;;5051867;28;20124;-84
2023/06/09 01:50:04;;;;;;;20.20;15.07;;;15.90;99.90;;;;;;5050692;28;20039;-81
2023/06/09 01:52:52;;;;;;;18.08;14.90;;;15.90;99.90;;;;;;5050502;28;20066;-84
2023/06/09 01:55:23;;;;;;;20.75;15.10;;;15.90;99.90;;;;;;5050634;28;20025;-84
2023/06/09 01:57:56;;;;;;;20.50;15.77;;;16.00;99.90;;;;;;5051947;28;20061;-81
2023/06/09 02:00:26;;;;;;;22.42;15.60;;;16.00;99.90;;;;;;5050923;28;20514;-82
2023/06/09 02:02:55;;;;;;;20.85;15.27;;;16.00;99.90;;;;;;5050564;28;20028;-85
2023/06/09 02:05:22;;;;;;;18.77;13.93;;;16.00;99.90;;;;;;5050144;28;20017;-84
2023/06/09 02:07:49;;;;;;;19.95;14.43;;;16.00;99.90;;;;;;5050388;28;20029;-84
2023/06/09 02:10:15;;;;;;;19.05;14.90;;;16.00;99.90;;;;;;5050547;28;20031;-81
2023/06/09 02:12:41;;;;;;;16.55;13.73;;;16.10;99.90;;;;;;5033808;28;20025;-82
2023/06/09 02:15:07;;;;;;;18.50;14.88;;;16.10;99.90;;;;;;5050314;28;20094;-82
2023/06/09 02:17:33;;;;;;;18.63;13.48;;;16.10;99.90;;;;;;5050300;28;20029;-85
2023/06/09 02:19:59;;;;;;;19.52;14.95;;;16.10;99.90;;;;;;5050265;28;20025;-84
2023/06/09 02:22:26;;;;;;;18.13;13.23;;;16.10;99.90;;;;;;5050128;28;20032;-85
2023/06/09 02:24:52;;;;;;;16.10;13.13;;;16.20;99.90;;;;;;5049927;28;20135;-85
2023/06/09 02:27:17;;;;;;;21.20;13.98;;;16.10;99.90;;;;;;5167990;27;20109;-82
2023/06/09 02:29:43;;;;;;;18.42;14.50;;;16.20;99.90;;;;;;5175818;27;20018;-85
2023/06/09 02:32:09;;;;;;;19.73;15.02;;;16.20;99.90;;;;;;5175754;27;20022;-82
2023/06/09 02:34:35;;;;;;;19.10;15.35;;;16.20;99.90;;;;;;5175770;27;20097;-82
2023/06/09 02:37:02;;;;;;;19.25;14.05;;;16.20;99.90;;;;;;5175726;27;20166;-85
2023/06/09 02:39:27;;;;;;;15.63;13.43;;;16.20;99.90;;;;;;5177017;27;20025;-86
2023/06/09 02:41:53;;;;;;;17.17;13.38;;;16.10;99.90;;;;;;5175579;27;20022;-82
2023/06/09 02:44:19;;;;;;;16.92;13.98;;;16.10;99.90;;;;;;5175475;27;20026;-85
2023/06/09 02:46:44;;;;;;;15.02;12.90;;;16.10;99.90;;;;;;5175401;27;20014;-85
2023/06/09 02:49:11;;;;;;;18.67;14.10;;;16.10;99.90;;;;;;5175452;27;20159;-84
2023/06/09 02:51:37;;;;;;;19.13;14.25;;;16.10;99.90;;;;;;5175444;27;20063;-85
2023/06/09 02:54:03;;;;;;;17.35;14.35;;;16.10;99.90;;;;;;5175456;27;20103;-82
2023/06/09 02:56:28;;;;;;;18.42;14.13;;;16.00;99.90;;;;;;5175237;27;20019;-82
2023/06/09 02:58:54;;;;;;;21.02;16.05;;;16.10;99.90;;;;;;5176607;27;20026;-81
2023/06/09 03:01:21;;;;;;;21.23;14.55;;;16.10;99.90;;;;;;5176487;27;20523;-85
2023/06/09 03:03:47;;;;;;;22.25;16.05;;;16.00;99.90;;;;;;5176461;27;20110;-82
2023/06/09 03:06:13;;;;;;;19.15;14.88;;;16.10;99.90;;;;;;5175154;27;20395;-85
2023/06/09 03:08:40;;;;;;;19.48;14.70;;;16.10;99.90;;;;;;5175221;27;20479;-82
2023/06/09 03:11:05;;;;;;;18.95;13.18;;;16.10;99.90;;;;;;5176303;27;20018;-82
2023/06/09 03:13:31;;;;;;;22.92;14.80;;;16.10;99.90;;;;;;5174999;27;20047;-84
2023/06/09 03:15:57;;;;;;;19.08;14.35;;;16.10;99.90;;;;;;5175548;27;20018;-82
2023/06/09 03:18:22;;;;;;;19.40;14.10;;;16.10;99.90;;;;;;5174946;27;20019;-84
2023/06/09 03:20:50;;;;;;;20.45;15.20;;;16.10;99.90;;;;;;5174819;27;20018;-82
2023/06/09 03:23:16;;;;;;;17.20;14.40;;;16.20;99.90;;;;;;5175307;27;20019;-81
2023/06/09 03:25:42;;;;;;;18.73;15.25;;;16.20;99.90;;;;;;5176105;27;20069;-84
2023/06/09 03:28:08;;;;;;;20.33;15.13;;;16.20;99.90;;;;;;5174947;27;20495;-82
2023/06/09 03:30:33;;;;;;;18.67;14.57;;;16.30;99.90;;;;;;5176040;27;20475;-84
2023/06/09 03:32:59;;;;;;;20.73;14.90;;;16.30;99.90;;;;;;5174769;27;20018;-84
2023/06/09 03:35:24;;;;;;;20.15;15.48;;;16.40;99.90;;;;;;5176000;27;20018;-84
2023/06/09 03:37:50;;;;;;;20.33;14.93;;;16.40;99.90;;;;;;5174620;27;20062;-84
2023/06/09 03:40:16;;;;;;;19.25;14.98;;;16.40;99.90;;;;;;5174609;27;20502;-85
2023/06/09 03:42:41;;;;;;;20.35;14.38;;;16.50;99.90;;;;;;5174663;27;20074;-82
2023/06/09 03:45:07;;;;;;;19.55;15.48;;;16.50;99.90;;;;;;5174555;27;20014;-84
2023/06/09 03:47:33;;;;;;;20.88;15.30;;;16.50;99.90;;;;;;5174415;27;20518;-84
2023/06/09 03:49:58;;;;;;;17.80;14.57;;;16.50;99.90;;;;;;5175958;27;20026;-82
2023/06/09 03:52:26;;;;;;;18.15;14.68;;;16.60;99.90;;;;;;5175789;27;20105;-82
2023/06/09 03:54:51;;;;;;;18.38;15.13;;;16.60;99.90;;;;;;5174601;27;20018;-83
2023/06/09 03:57:17;;;;;;;19.08;14.50;;;16.70;99.90;;;;;;5175706;27;20494;-84
2023/06/09 03:59:43;;;;;;;21.50;15.05;;;16.70;99.90;;;;;;5174453;27;20420;-84
2023/06/09 04:02:08;;;;;;;18.73;15.48;;;16.70;99.90;;;;;;5174365;27;20066;-84
2023/06/09 04:04:34;;;;;;;17.33;14.40;;;16.80;99.90;;;;;;5174347;27;20394;-82
2023/06/09 04:06:59;;;;;;;24.13;15.15;;;16.80;99.90;;;;;;5175592;27;20474;-85
2023/06/09 04:09:27;;;;;;;17.65;14.52;;;16.90;99.90;;;;;;5175657;27;20463;-85
2023/06/09 04:11:53;;;;;;;17.65;13.82;;;17.00;99.90;;;;;;5175685;27;20059;-85
2023/06/09 04:14:18;;;;;;;18.15;14.32;;;17.10;99.90;;;;;;5174309;27;20057;-84
2023/06/09 04:16:45;;;;;;;18.00;15.20;;;17.10;99.90;;;;;;5174316;27;20034;-84
2023/06/09 04:19:10;;;;;;;22.77;16.83;;;17.20;99.90;;;;;;5174321;27;20101;-82
2023/06/09 04:21:37;;;;;;;18.83;15.70;;;17.20;99.90;;;;;;5174312;27;20152;-84
2023/06/09 04:24:03;;;;;;;18.30;14.68;;;17.30;99.90;;;;;;5174171;27;20037;-85
2023/06/09 04:26:32;;;;;;;18.23;14.88;;;17.40;99.90;;;;;;5175840;27;20094;-82
2023/06/09 04:28:58;;;;;;;18.77;14.07;;;17.40;99.90;;;;;;5179406;27;20030;-85
2023/06/09 04:31:23;;;;;;;16.70;14.02;;;17.50;99.90;;;;;;5178106;27;20481;-82
2023/06/09 04:33:53;;;;;;;18.15;15.45;;;17.60;99.90;;;;;;5178181;27;20018;-83
2023/06/09 04:36:20;;;;;;;16.83;13.98;;;17.60;99.90;;;;;;5179393;27;20375;-85
2023/06/09 04:38:46;;;;;;;18.67;15.23;;;17.60;99.90;;;;;;5179369;27;20019;-82
2023/06/09 04:41:12;;;;;;;20.27;15.93;;;17.60;99.90;;;;;;5070326;27;20032;-85
2023/06/09 04:43:39;;;;;;;17.05;14.13;;;17.70;99.90;;;;;;5053405;28;20099;-83
2023/06/09 04:46:08;;;;;;;20.52;14.05;;;17.70;99.90;;;;;;5070111;28;20025;-84
2023/06/09 04:48:34;;;;;;;16.95;14.50;;;17.70;99.90;;;;;;5071626;27;20039;-83
2023/06/09 04:51:03;;;;;;;18.63;14.85;;;17.60;99.90;;;;;;5072952;28;20025;-83
2023/06/09 04:53:29;;;;;;;17.40;15.07;;;17.60;99.90;;;;;;5071456;28;20021;-84
2023/06/09 04:55:55;;;;;;;18.60;15.05;;;17.50;99.90;;;;;;5072804;28;20066;-85
2023/06/09 04:58:21;;;;;;;16.48;14.38;;;17.60;99.90;;;;;;5071346;27;20081;-85
2023/06/09 05:00:47;;;;;;;17.48;14.93;;;17.60;99.90;;;;;;5072423;27;20021;-85
2023/06/09 05:03:17;;;;;;;18.65;14.55;;;17.70;99.90;;;;;;5071177;27;20029;-82
2023/06/09 05:05:43;;;;;;;18.70;15.50;;;17.80;99.90;;;;;;5072631;28;20017;-85
2023/06/09 05:08:09;;;;;;;17.05;14.93;;;17.90;99.90;;;;;;5072184;28;20063;-85
2023/06/09 05:10:35;;;;;;;20.50;15.40;;;17.90;99.90;;;;;;5070716;27;20052;-85
2023/06/09 05:13:02;;;;;;;18.45;14.48;;;17.90;99.90;;;;;;5072136;28;20418;-82
2023/06/09 05:15:27;;;;;;;16.58;14.15;;;17.80;99.90;;;;;;5070383;28;20063;-85
2023/06/09 05:17:53;;;;;;;22.95;14.77;;;17.90;99.90;;;;;;5070608;28;20056;-85
2023/06/09 05:20:19;;;;;;;16.08;14.38;;;18.00;99.90;;;;;;5070786;27;20492;-85
2023/06/09 05:22:45;;;;;;;19.33;14.50;;;18.10;99.90;;;;;;5070261;27;20096;-85
2023/06/09 05:25:14;;;;;;;16.15;14.23;;;18.20;99.90;;;;;;5072104;27;20136;-82
2023/06/09 05:27:39;;;;;;;18.50;15.23;;;18.30;99.90;;;;;;5070880;27;20092;-82
2023/06/09 05:30:05;;;;;;;18.90;16.05;;;18.20;99.90;;;;;;5071293;27;20119;-82
2023/06/09 05:32:31;;;;;;;16.70;14.60;;;18.30;99.90;;;;;;5070825;27;20394;-85
2023/06/09 05:34:57;;;;;;;18.17;15.20;;;18.50;99.90;;;;;;5072021;28;20031;-83
2023/06/09 05:37:22;;;;;;;18.45;15.40;;;18.50;99.90;;;;;;5070939;27;20033;-83
2023/06/09 05:39:48;;;;;;;16.23;14.50;;;18.60;99.90;;;;;;5069887;27;20016;-83
2023/06/09 05:42:15;;;;;;;15.70;13.93;;;18.70;99.90;;;;;;5068539;27;20016;-85
2023/06/09 05:44:40;;;;;;;17.52;14.93;;;18.80;99.90;;;;;;5068591;27;20017;-83
2023/06/09 05:47:06;;;;;;;17.42;15.23;;;18.90;99.90;;;;;;5071386;27;20477;-85
2023/06/09 05:49:33;;;;;;;20.15;16.63;;;19.00;99.90;;;;;;5070619;27;20021;-85
2023/06/09 05:51:59;;;;;;;20.05;15.32;;;19.20;99.90;;;;;;5072397;28;21260;-85
2023/06/09 05:54:24;;;;;;;16.73;14.43;;;19.30;99.90;;;;;;5068367;28;20024;-82
2023/06/09 05:56:51;;;;;;;18.33;15.30;;;19.50;99.90;;;;;;5069691;27;20017;-82
2023/06/09 05:59:20;;;;;;;18.08;14.75;;;19.60;99.90;;;;;;5069567;28;20024;-85
2023/06/09 06:01:50;;;;;;;15.30;13.70;;;19.70;99.90;;;;;;5070820;28;20024;-82
2023/06/09 06:04:16;;;;;;;16.20;14.50;;;19.80;99.90;;;;;;5068156;27;20098;-85
2023/06/09 06:06:42;;;;;;;18.02;14.63;;;20.00;99.90;;;;;;5071619;28;20021;-83
2023/06/09 06:09:08;;;;;;;15.63;13.68;;;20.10;99.90;;;;;;5070061;28;20032;-82
2023/06/09 06:11:33;;;;;;;19.92;15.65;;;20.00;99.90;;;;;;5070357;28;20029;-82
2023/06/09 06:13:59;;;;;;;17.33;14.43;;;20.10;99.90;;;;;;5070081;28;20092;-85
2023/06/09 06:16:25;;;;;;;18.33;15.80;;;20.00;99.90;;;;;;5070241;28;20031;-85
2023/06/09 06:18:50;;;;;;;15.85;14.18;;;20.00;99.90;;;;;;5070024;27;20024;-85
2023/06/09 06:21:18;;;;;;;17.40;13.75;;;20.10;99.90;;;;;;5069998;28;20029;-82
2023/06/09 06:23:44;;;;;;;20.13;15.02;;;20.00;99.90;;;;;;5056955;28;20537;-83
2023/06/09 06:26:09;;;;;;;17.50;15.18;;;20.00;99.90;;;;;;5051044;28;20425;-83
2023/06/09 06:28:35;;;;;;;17.38;15.25;;;20.20;99.90;;;;;;5050006;28;20029;-83
2023/06/09 06:31:03;;;;;;;20.63;14.60;;;20.20;99.90;;;;;;5051383;28;20029;-85
2023/06/09 06:33:29;;;;;;;22.92;15.52;;;20.20;99.90;;;;;;5050059;28;20112;-82
2023/06/09 06:35:56;;;;;;;20.60;14.63;;;20.20;99.90;;;;;;5051751;28;20032;-85
2023/06/09 06:38:22;;;;;;;17.20;14.27;;;20.30;99.90;;;;;;5050968;28;20021;-83
2023/06/09 06:40:48;;;;;;;18.35;15.52;;;20.40;99.90;;;;;;5049771;28;20444;-84
2023/06/09 06:43:14;;;;;;;19.65;14.65;;;20.50;99.90;;;;;;5051141;28;20067;-85
2023/06/09 06:45:40;;;;;;;17.08;15.25;;;20.70;99.90;;;;;;5049877;28;20386;-85
2023/06/09 06:48:06;;;;;;;16.38;14.40;;;20.70;99.90;;;;;;5050887;28;20037;-85
2023/06/09 06:50:32;;;;;;;18.55;14.73;;;20.70;99.90;;;;;;5050270;28;20028;-85
2023/06/09 06:52:58;;;;;;;16.80;15.02;;;20.70;99.90;;;;;;5049249;28;20017;-85
2023/06/09 06:55:24;;;;;;;18.02;15.23;;;20.80;99.90;;;;;;5051300;28;20032;-85
2023/06/09 06:57:49;;;;;;;23.88;15.55;;;20.80;99.90;;;;;;5055260;28;20024;-85
2023/06/09 07:00:15;;;;;;;20.85;15.70;;;20.80;99.90;;;;;;5069013;27;20024;-83
2023/06/09 07:02:43;;;;;;;16.67;14.65;;;20.70;99.90;;;;;;5069211;28;20020;-84
2023/06/09 07:05:08;;;;;;;17.67;14.95;;;20.70;99.90;;;;;;5069920;27;20370;-84
2023/06/09 07:07:34;;;;;;;16.17;14.48;;;20.80;99.90;;;;;;5071070;27;20043;-85
2023/06/09 07:10:04;;;;;;;18.23;15.77;;;20.90;99.90;;;;;;5069496;27;20063;-84
2023/06/09 07:12:29;;;;;;;16.55;14.45;;;20.80;99.90;;;;;;5071847;28;20405;-84
2023/06/09 07:14:58;;;;;;;20.05;15.02;;;20.80;99.90;;;;;;5069548;27;20013;-82
2023/06/09 07:17:23;;;;;;;16.30;14.70;;;20.70;99.90;;;;;;5070563;28;20405;-83
2023/06/09 07:19:49;;;;;;;17.33;15.10;;;20.60;99.90;;;;;;5069450;27;20031;-85
2023/06/09 07:22:15;;;;;;;17.30;14.63;;;20.50;99.90;;;;;;5069572;27;20021;-84
2023/06/09 07:24:41;;;;;;;18.55;16.55;;;20.50;99.90;;;;;;5069755;27;20047;-84
2023/06/09 07:27:08;;;;;;;17.40;15.60;;;20.50;99.90;;;;;;5069307;27;20552;-84
2023/06/09 07:29:35;;;;;;;16.48;14.50;;;20.40;99.90;;;;;;5070113;28;20371;-84
2023/06/09 07:32:03;;;;;;;18.88;16.35;;;20.40;99.90;;;;;;5070181;28;20101;-85
2023/06/09 07:34:29;;;;;;;15.40;13.90;;;20.30;99.90;;;;;;5070009;28;20035;-85
2023/06/09 07:36:55;;;;;;;17.55;15.68;;;20.30;99.90;;;;;;5068585;27;20020;-84
2023/06/09 07:39:22;;;;;;;19.27;16.33;;;20.30;99.90;;;;;;5068708;28;20017;-84
2023/06/09 07:41:48;;;;;;;17.95;15.98;;;20.30;99.90;;;;;;5068623;27;20426;-84
2023/06/09 07:44:13;;;;;;;18.15;16.45;;;20.40;99.90;;;;;;5068927;28;20021;-84
2023/06/09 07:46:39;;;;;;;20.13;18.13;;;20.50;99.90;;;;;;5068511;28;20025;-84
2023/06/09 07:49:04;;;;;;;20.52;18.48;;;20.50;99.90;;;;;;5068461;28;20060;-85
2023/06/09 07:51:30;;;;;;;19.25;17.20;;;20.60;99.90;;;;;;5069736;28;20060;-84
2023/06/09 07:53:56;;;;;;;20.05;17.88;;;20.70;99.90;;;;;;5068402;27;20021;-85
2023/06/09 07:56:21;;;;;;;20.85;18.67;;;20.80;99.90;;;;;;5068453;27;20056;-85
2023/06/09 07:58:49;;;;;;;23.40;18.73;;;20.80;99.90;;;;;;5068516;27;20552;-84
2023/06/09 08:01:15;;;;;;;20.50;18.50;;;20.70;99.90;;;;;;5069689;28;20021;-85
2023/06/09 08:03:41;;;;;;;18.52;16.55;;;21.00;99.90;;;;;;5072505;27;20036;-85
2023/06/09 08:06:08;;;;;;;17.75;16.05;;;21.10;99.90;;;;;;5071946;27;20729;-86
2023/06/09 08:08:34;;;;;;;19.85;15.35;;;21.40;99.90;;;;;;5071859;27;20047;-86
2023/06/09 08:11:00;;;;;;;17.23;15.10;;;21.60;99.90;;;;;;5071834;27;20136;-86
2023/06/09 08:13:26;;;;;;;16.17;14.10;;;21.50;99.90;;;;;;5073264;27;20056;-85
2023/06/09 08:15:52;;;;;;;15.63;13.00;;;21.70;99.90;;;;;;5072434;28;20025;-85
2023/06/09 08:18:17;;;;;;;15.10;12.77;;;21.80;95.60;;;;;;5072334;27;20065;-85
2023/06/09 08:20:43;;;;;;;14.18;12.68;;;21.90;91.30;;;;;;5090386;27;20051;-83
2023/06/09 08:23:09;;;;;;;13.13;11.32;;;22.00;89.00;;;;;;5093405;28;20024;-84
2023/06/09 08:25:35;;;;;;;16.98;12.15;;;22.30;88.30;;;;;;5093073;28;20047;-83
2023/06/09 08:28:01;;;;;;;14.77;13.27;;;22.50;87.80;;;;;;5093407;28;20396;-84
2023/06/09 08:30:27;;;;;;;14.98;13.20;;;22.50;89.60;;;;;;5092238;28;20020;-84
2023/06/09 08:32:52;;;;;;;14.70;12.38;;;22.80;87.20;;;;;;5093260;28;20021;-85
2023/06/09 08:35:18;;;;;;;15.10;13.57;;;23.00;84.40;;;;;;5094286;28;20445;-85
2023/06/09 08:37:44;;;;;;;14.90;13.40;;;22.50;90.20;;;;;;5092044;27;20049;-84
2023/06/09 08:40:10;;;;;;;13.93;12.40;;;22.50;88.10;;;;;;5093336;28;20366;-84
2023/06/09 08:42:38;;;;;;;15.43;12.63;;;22.50;89.30;;;;;;5092105;28;20020;-84
2023/06/09 08:45:05;;;;;;;13.88;12.68;;;22.60;88.60;;;;;;5093361;28;20024;-84
2023/06/09 08:47:34;;;;;;;12.52;11.32;;;22.80;88.80;;;;;;5092271;28;20113;-84
2023/06/09 08:50:02;;;;;;;11.15;9.95;;;22.60;87.40;;;;;;5094753;28;20067;-83
2023/06/09 08:52:29;;;;;;;10.13;9.18;;;22.60;84.10;;;;;;5092244;27;20035;-84
2023/06/09 08:54:56;;;;;;;11.40;9.73;;;22.60;81.30;;;;;;5093083;28;20024;-85
2023/06/09 08:57:23;;;;;;;11.25;9.95;;;22.50;81.30;;;;;;5091854;28;20020;-85
2023/06/09 08:59:50;;;;;;;12.30;10.90;;;22.80;79.70;;;;;;5093096;28;20024;-84
2023/06/09 09:02:16;;;;;;;11.18;9.95;;;23.00;79.30;;;;;;5093370;28;20469;-84
2023/06/09 09:04:42;;;;;;;9.52;8.40;;;23.20;79.50;;;;;;5093021;28;20028;-84
2023/06/09 09:07:09;;;;;;;10.18;8.68;;;23.20;78.60;;;;;;5092158;28;20028;-84
2023/06/09 09:09:35;;;;;;;9.50;8.52;;;23.40;80.20;;;;;;5091702;28;20088;-84
2023/06/09 09:12:04;;;;;;;10.65;8.75;;;23.60;77.10;;;;;;5093190;28;20016;-84
2023/06/09 09:14:30;;;;;;;9.63;8.73;;;23.80;73.00;;;;;;5090486;28;20131;-84
2023/06/09 09:16:56;;;;;;;11.50;10.07;;;24.10;72.90;;;;;;5092838;28;20445;-84
2023/06/09 09:19:26;;;;;;;11.40;10.25;;;24.00;73.70;;;;;;5092361;28;20115;-84
2023/06/09 09:21:55;;;;;;;12.93;10.20;;;24.10;74.00;;;;;;5092724;28;20062;-84
2023/06/09 09:24:20;;;;;;;10.43;9.48;;;24.10;74.40;;;;;;5092728;28;20035;-84
2023/06/09 09:26:46;;;;;;;10.73;9.63;;;24.20;73.10;;;;;;5091238;28;20501;-84
2023/06/09 09:29:11;;;;;;;10.18;9.13;;;23.80;73.30;;;;;;5091432;28;20036;-84
2023/06/09 09:31:41;;;;;;;11.65;10.45;;;24.00;73.90;;;;;;5092544;28;20517;-84
2023/06/09 09:34:14;;;;;;;12.52;9.55;;;23.80;72.00;;;;;;5091233;28;20393;-83
2023/06/09 09:36:43;;;;;;;10.73;9.52;;;23.70;72.00;;;;;;5091281;28;20074;-85
2023/06/09 09:39:09;;;;;;;11.77;10.60;;;23.80;71.90;;;;;;5091567;28;20020;-84
2023/06/09 09:41:34;;;;;;;13.82;10.82;;;23.80;73.00;;;;;;5092492;28;20465;-84
2023/06/09 09:44:00;;;;;;;12.27;11.07;;;23.70;73.00;;;;;;5092449;28;20048;-84
2023/06/09 09:46:26;;;;;;;12.13;10.93;;;23.80;73.40;;;;;;5092403;28;20064;-84
2023/06/09 09:48:54;;;;;;;13.02;10.27;;;23.80;73.20;;;;;;5091791;28;20081;-83
2023/06/09 09:51:20;;;;;;;11.35;10.35;;;23.70;74.40;;;;;;5091111;28;20027;-84
2023/06/09 09:53:46;;;;;;;12.00;10.80;;;23.30;76.70;;;;;;5092339;28;20469;-83
2023/06/09 09:56:17;;;;;;;14.63;10.50;;;23.50;77.70;;;;;;5091075;28;20024;-84
2023/06/09 09:58:45;;;;;;;11.68;10.57;;;23.60;75.50;;;;;;5092340;28;20111;-84
2023/06/09 10:01:12;;;;;;;11.75;10.18;;;23.40;77.20;;;;;;5092121;28;20060;-83
2023/06/09 10:03:41;;;;;;;13.05;10.15;;;23.00;78.00;;;;;;5090977;28;20016;-84
2023/06/09 10:06:11;;;;;;;15.63;10.25;;;23.30;75.80;;;;;;5091606;28;20496;-84
2023/06/09 10:08:40;;;;;;;14.73;10.88;;;23.20;76.70;;;;;;5092017;28;20036;-83
2023/06/09 10:11:07;;;;;;;11.57;10.38;;;23.30;76.90;;;;;;5091962;28;20020;-83
2023/06/09 10:13:33;;;;;;;9.85;8.85;;;23.70;75.70;;;;;;5090693;28;20020;-84
2023/06/09 10:15:59;;;;;;;9.35;8.45;;;23.50;73.50;;;;;;5088005;27;20380;-83
2023/06/09 10:18:26;;;;;;;9.63;8.77;;;23.70;74.00;;;;;;5070068;28;20016;-84
2023/06/09 10:20:53;;;;;;;9.77;8.80;;;24.00;73.20;;;;;;5071231;28;20016;-84
2023/06/09 10:23:19;;;;;;;10.38;9.05;;;23.90;73.20;;;;;;5071350;28;20025;-84
2023/06/09 10:25:49;;;;;;;8.18;7.38;;;23.90;74.80;;;;;;5069252;27;20378;-84
2023/06/09 10:28:16;;;;;;;8.52;7.47;;;23.70;74.00;;;;;;5069837;27;20477;-84
2023/06/09 10:30:43;;;;;;;8.05;6.95;;;23.80;74.70;;;;;;5069864;27;20017;-84
2023/06/09 10:33:16;;;;;;;7.30;6.60;;;24.40;71.10;;;;;;5073988;28;20029;-84
2023/06/09 10:35:45;;;;;;;8.68;6.82;;;24.60;67.30;;;;;;5071013;28;20485;-84
2023/06/09 10:38:41;;;;;;;8.27;7.50;;;24.80;67.80;;;;;;5069847;27;20065;-84
2023/06/09 10:41:28;;;;;;;6.65;5.97;;;24.90;67.90;;;;;;5070049;28;20036;-85
2023/06/09 10:44:06;;;;;;;8.55;6.95;;;25.00;65.40;;;;;;5069989;28;20028;-86
2023/06/09 10:46:49;;;;;;;7.78;7.00;;;24.80;66.00;;;;;;5071166;28;20046;-86
2023/06/09 10:49:34;;;;;;;10.35;7.70;;;25.00;66.30;;;;;;5071421;28;20037;-82
2023/06/09 10:52:00;;;;;;;8.05;7.25;;;24.60;67.60;;;;;;5070941;28;20478;-83
2023/06/09 10:54:26;;;;;;;9.05;8.25;;;24.70;68.50;;;;;;5071874;27;20027;-82
2023/06/09 10:57:22;;;;;;;8.13;7.32;;;24.80;68.90;;;;;;5090075;28;20020;-83
2023/06/09 10:59:47;;;;;;;8.35;7.38;;;24.60;69.00;;;;;;5091070;27;20032;-83
2023/06/09 11:02:15;;;;;;;8.30;7.55;;;24.40;69.60;;;;;;5090945;28;20044;-82
2023/06/09 11:04:44;;;;;;;8.73;7.03;;;24.10;72.10;;;;;;5089967;27;20020;-83
2023/06/09 11:07:12;;;;;;;9.13;7.45;;;23.70;72.50;;;;;;5090342;27;20151;-85
2023/06/09 11:09:59;;;;;;;7.72;6.82;;;23.40;73.50;;;;;;5091023;28;20035;-85
2023/06/09 11:12:24;;;;;;;7.57;6.88;;;23.50;74.90;;;;;;5089978;28;20100;-83
2023/06/09 11:14:58;;;;;;;9.15;7.10;;;23.30;76.80;;;;;;5089767;28;20024;-83
2023/06/09 11:17:39;;;;;;;8.43;6.90;;;23.20;75.00;;;;;;5089638;28;20075;-84
2023/06/09 11:22:48;;;;;;;7.90;7.05;;;23.00;78.00;;;;;;5091771;28;20036;-83
2023/06/09 11:25:17;;;;;;;8.13;7.30;;;23.10;78.30;;;;;;5089505;27;20537;-83
2023/06/09 11:27:45;;;;;;;7.95;7.13;;;23.20;77.40;;;;;;5090926;28;20038;-83
2023/06/09 11:30:18;;;;;;;8.13;6.68;;;23.30;77.40;;;;;;5090933;28;20103;-83
2023/06/09 11:32:51;;;;;;;12.73;6.63;;;23.60;76.40;;;;;;5089534;28;20028;-83
2023/06/09 11:35:28;;;;;;;8.15;6.07;;;23.70;73.60;;;;;;5090755;28;20099;-83
2023/06/09 11:37:56;;;;;;;7.40;6.70;;;23.80;70.40;;;;;;5089089;28;20020;-85
2023/06/09 11:40:22;;;;;;;6.97;6.38;;;23.70;71.20;;;;;;5090671;28;20024;-84
2023/06/09 11:42:49;;;;;;;7.63;6.80;;;24.00;71.20;;;;;;5089437;28;20371;-84
2023/06/09 11:45:15;;;;;;;7.05;6.45;;;24.30;71.60;;;;;;5089359;28;20021;-84
2023/06/09 11:47:43;;;;;;;7.60;6.43;;;24.60;71.10;;;;;;5090690;28;20384;-84
2023/06/09 11:50:14;;;;;;;12.18;6.72;;;24.80;69.20;;;;;;5089378;27;20032;-84
2023/06/09 11:52:45;;;;;;;7.53;6.82;;;25.10;67.20;;;;;;5091349;28;20096;-84
2023/06/09 11:55:15;;;;;;;7.82;6.45;;;25.20;66.80;;;;;;5090640;28;20065;-84
2023/06/09 11:57:41;;;;;;;8.05;6.30;;;25.10;65.60;;;;;;5089653;27;20027;-85
2023/06/09 12:00:14;;;;;;;7.38;6.53;;;25.00;66.20;;;;;;5089642;27;20012;-84
2023/06/09 12:02:44;;;;;;;8.30;6.72;;;25.10;66.40;;;;;;5090748;28;20500;-84
2023/06/09 12:05:12;;;;;;;7.53;6.18;;;24.80;66.50;;;;;;5090950;28;20110;-85
2023/06/09 12:07:38;;;;;;;8.20;7.18;;;24.60;66.70;;;;;;5090393;28;20035;-85
2023/06/09 12:10:04;;;;;;;9.30;7.07;;;24.40;68.30;;;;;;5089114;28;20492;-84
2023/06/09 12:12:30;;;;;;;10.98;6.88;;;24.30;68.60;;;;;;5089407;28;20020;-84
2023/06/09 12:14:55;;;;;;;8.77;7.97;;;24.20;70.30;;;;;;5089214;28;20035;-84
2023/06/09 12:17:22;;;;;;;7.82;7.00;;;23.90;75.70;;;;;;5090650;28;20111;-84
2023/06/09 12:19:49;;;;;;;9.07;8.15;;;23.80;78.30;;;;;;5090247;28;20031;-84
2023/06/09 12:27:28;;;;;;;9.57;7.05;;;24.00;78.00;;;;;;6231029;22;19919;-81
2023/06/09 12:29:54;;;;;;;7.40;6.68;;;24.10;76.20;;;;;;5045723;28;20045;-82
2023/06/09 12:32:23;;;;;;;8.82;7.03;;;24.30;72.70;;;;;;5041095;28;20040;-82
2023/06/09 12:34:48;;;;;;;7.85;7.15;;;24.50;72.30;;;;;;5053057;28;20083;-83
2023/06/09 12:37:15;;;;;;;7.10;6.50;;;24.60;73.10;;;;;;5052944;28;20466;-83
2023/06/09 12:39:40;;;;;;;8.32;7.30;;;24.70;75.00;;;;;;5052848;28;20125;-82
2023/06/09 12:42:10;;;;;;;9.00;7.03;;;24.60;73.40;;;;;;5053182;28;20060;-83